Eagletown, Oklahoma
Current Conditions -  °F | °C
As of 8:53 PM on Thursday 27 Nov 2014 (Local Time) from KDEQ Reporting Station
Clear Clear  
Wind Chill: 35°   Ceiling: Unl
Heat Index: 35°   Visibility: 10mi
Dew Point: 33°   Wind: 0mph
Humidity: 92%   Direction: NA
Pressure: 30.42"   Gusts: NA
Location:  34.03°N, 94.58°W
Report Text: KDEQ 280253Z AUTO 00000KT 10SM CLR 02/01 A3042 RMK AO2 SLP303 T00170006 55001
Loading
Personal Weather Stations






























Interactive Weather Map New forecast layout! Learn more

10-Day Weather Forecast

Advertisements
Track Severe Weather on mobile